Time;durP1;ratioP1;P1;durP2;ratioP2;P2;SDS_P1;SDS_P2;PMS_P1;PMS_P2;Temp;Humidity;BMP_temperature;BMP_pressure;BME280_temperature;BME280_humidity;BME280_pressure;Samples;Min_cycle;Max_cycle;Signal;HPM_P1;HPM_P2
2023/07/01 00:02:19;;;;;;;30.50;9.38;;;;;;;16.54;100.00;98276.16;5095264;28;20043;-91
2023/07/01 00:04:45;;;;;;;27.50;8.55;;;;;;;16.22;100.00;98189.50;5096711;28;20050;-92
2023/07/01 00:09:42;;;;;;;16.45;6.40;;;;;;;15.79;100.00;98131.25;5155039;27;20385;-93
2023/07/01 00:12:08;;;;;;;13.95;4.82;;;;;;;15.61;100.00;98108.13;5132617;28;20047;-92
2023/07/01 00:14:34;;;;;;;15.60;5.18;;;;;;;15.60;100.00;98118.00;5137784;27;20047;-92
2023/07/01 00:17:02;;;;;;;10.30;4.10;;;;;;;15.52;100.00;98098.81;5137135;27;20134;-93
2023/07/01 00:19:28;;;;;;;12.77;5.03;;;;;;;15.59;100.00;98094.84;5137177;27;20042;-93
2023/07/01 00:21:53;;;;;;;12.27;4.25;;;;;;;15.67;100.00;98098.88;5131338;27;20115;-93
2023/07/01 00:24:19;;;;;;;8.98;3.92;;;;;;;15.61;100.00;98076.88;5131143;27;20568;-94
2023/07/01 00:26:47;;;;;;;10.40;4.13;;;;;;;15.65;100.00;98074.84;5136707;27;20047;-94
2023/07/01 00:29:13;;;;;;;12.32;4.03;;;;;;;15.83;100.00;98102.44;5136217;27;20069;-93
2023/07/01 00:31:39;;;;;;;11.38;4.22;;;;;;;15.99;100.00;98129.19;5136104;27;20039;-94
2023/07/01 00:34:05;;;;;;;13.02;4.68;;;;;;;15.96;100.00;98105.22;5133631;27;20400;-93
2023/07/01 00:36:30;;;;;;;13.65;5.00;;;;;;;15.88;100.00;98094.13;5132912;28;20065;-93
2023/07/01 00:38:56;;;;;;;13.05;5.38;;;;;;;16.02;100.00;98119.13;5135937;27;20035;-92
2023/07/01 00:41:24;;;;;;;14.35;5.13;;;;;;;16.01;100.00;98119.25;5117537;27;20043;-93
2023/07/01 00:44:25;;;;;;;14.40;5.97;;;;;;;16.07;100.00;98131.41;5121664;27;20514;-94
2023/07/01 00:46:54;;;;;;;17.98;6.22;;;;;;;16.13;100.00;98126.53;5135190;27;20507;-92
2023/07/01 00:49:33;;;;;;;22.63;6.78;;;;;;;15.91;100.00;98096.59;5131405;27;20035;-92
2023/07/01 00:52:17;;;;;;;15.55;5.95;;;;;;;15.84;100.00;98097.94;5128765;28;20040;-93
2023/07/01 00:54:49;;;;;;;18.13;6.88;;;;;;;15.89;100.00;98103.88;5131139;27;20130;-93
2023/07/01 00:57:36;;;;;;;17.08;6.28;;;;;;;15.97;100.00;98110.50;5119507;27;20043;-93
2023/07/01 01:00:10;;;;;;;18.00;6.82;;;;;;;16.07;100.00;98109.94;5132187;28;20040;-93
2023/07/01 01:02:55;;;;;;;21.70;7.70;;;;;;;16.16;100.00;98130.88;5088931;28;20513;-91
2023/07/01 01:05:27;;;;;;;19.17;7.32;;;;;;;16.11;100.00;98160.66;5073910;28;20382;-91
2023/07/01 01:07:59;;;;;;;17.60;6.03;;;;;;;15.98;100.00;98186.44;5077229;28;20135;-92
2023/07/01 01:10:29;;;;;;;15.02;5.65;;;;;;;15.94;100.00;98184.91;5076122;28;20502;-93
2023/07/01 01:12:58;;;;;;;19.77;5.72;;;;;;;16.00;100.00;98182.75;5079671;28;20040;-90
2023/07/01 01:15:26;;;;;;;16.33;5.97;;;;;;;16.11;100.00;98211.63;5079625;28;20048;-91
2023/07/01 01:17:57;;;;;;;16.83;5.45;;;;;;;16.14;100.00;98226.66;5075760;28;20327;-93
2023/07/01 01:20:23;;;;;;;11.95;4.15;;;;;;;15.80;100.00;98216.06;5053320;28;20040;-92
2023/07/01 01:22:55;;;;;;;8.82;4.00;;;;;;;15.52;100.00;98197.09;5050537;28;20045;-91
2023/07/01 01:25:29;;;;;;;13.82;4.18;;;;;;;15.43;100.00;98169.00;5047880;28;20029;-92
2023/07/01 01:27:58;;;;;;;11.98;3.50;;;;;;;15.44;100.00;98156.47;5054455;28;20048;-93
2023/07/01 01:30:30;;;;;;;9.52;3.60;;;;;;;15.33;100.00;98133.84;5034032;28;20143;-92
2023/07/01 01:32:59;;;;;;;9.07;3.63;;;;;;;15.26;100.00;98103.00;5050024;28;20044;-92
2023/07/01 01:35:28;;;;;;;12.15;3.40;;;;;;;15.43;100.00;98109.22;5063601;28;20151;-93
2023/07/01 01:38:02;;;;;;;9.98;3.40;;;;;;;15.32;100.00;98077.69;5043241;28;20052;-91
2023/07/01 01:41:00;;;;;;;11.98;3.88;;;;;;;15.45;100.00;98067.13;5052318;28;20075;-92
2023/07/01 01:43:35;;;;;;;12.07;4.25;;;;;;;15.59;100.00;98059.13;5050652;28;20433;-93
2023/07/01 01:46:02;;;;;;;10.55;4.00;;;;;;;15.54;100.00;98031.75;5041838;28;20099;-93
2023/07/01 01:48:32;;;;;;;12.23;4.25;;;;;;;15.84;100.00;98049.69;5046509;28;20043;-94
2023/07/01 01:51:14;;;;;;;14.70;5.07;;;;;;;15.95;100.00;98074.03;5051868;28;20044;-93
2023/07/01 01:53:55;;;;;;;15.52;4.57;;;;;;;15.78;100.00;98057.09;5041068;28;20061;-94
2023/07/01 01:56:33;;;;;;;13.63;4.65;;;;;;;15.82;100.00;98090.84;5045357;28;20040;-95
2023/07/01 01:59:20;;;;;;;13.70;5.00;;;;;;;15.66;100.00;98111.44;5088031;28;20065;-95
2023/07/01 02:01:46;;;;;;;15.25;4.07;;;;;;;15.61;100.00;98108.13;5101568;28;20039;-95
2023/07/01 02:04:12;;;;;;;14.60;4.53;;;;;;;15.67;100.00;98123.88;5097478;28;20047;-95
2023/07/01 02:06:38;;;;;;;11.40;4.18;;;;;;;15.77;100.00;98140.31;5107490;28;20043;-94
2023/07/01 02:09:04;;;;;;;12.02;4.50;;;;;;;15.57;100.00;98150.34;5086396;28;20052;-93
2023/07/01 02:11:30;;;;;;;15.05;4.70;;;;;;;15.35;100.00;98117.69;5117574;28;20065;-93
2023/07/01 02:13:56;;;;;;;13.63;4.22;;;;;;;15.28;100.00;98113.63;5113317;28;20127;-93
2023/07/01 02:16:23;;;;;;;14.05;4.25;;;;;;;15.28;100.00;98133.22;5080138;28;20068;-93
2023/07/01 02:18:49;;;;;;;11.25;4.50;;;;;;;15.45;100.00;98169.78;5110300;28;20082;-95
2023/07/01 02:21:15;;;;;;;15.55;5.47;;;;;;;15.39;100.00;98157.59;5090283;28;20051;-94
2023/07/01 02:23:41;;;;;;;12.07;4.50;;;;;;;15.46;100.00;98167.97;5080711;28;20044;-93
2023/07/01 02:26:07;;;;;;;14.43;4.68;;;;;;;15.42;100.00;98164.63;5097233;28;20131;-93
2023/07/01 02:28:33;;;;;;;15.13;5.57;;;;;;;15.41;100.00;98144.97;5097454;28;20381;-95
2023/07/01 02:30:59;;;;;;;17.70;5.05;;;;;;;15.53;100.00;98164.00;5096980;28;20040;-92
2023/07/01 02:33:27;;;;;;;14.57;5.43;;;;;;;15.44;100.00;98137.72;5097003;28;20040;-94
2023/07/01 02:35:52;;;;;;;16.52;5.10;;;;;;;15.52;100.00;98155.09;5096719;28;20048;-94
2023/07/01 02:38:19;;;;;;;16.60;5.75;;;;;;;15.34;100.00;98127.53;5096859;28;20028;-94
2023/07/01 02:40:44;;;;;;;15.07;5.32;;;;;;;15.37;100.00;98127.34;5106714;28;20048;-93
2023/07/01 02:43:10;;;;;;;13.40;4.40;;;;;;;15.37;100.00;98122.00;5116217;28;20127;-94
2023/07/01 02:45:36;;;;;;;14.48;4.57;;;;;;;15.40;100.00;98137.91;5110079;28;20047;-93
2023/07/01 02:48:03;;;;;;;13.10;4.85;;;;;;;15.49;100.00;98146.38;5112971;28;20044;-92
2023/07/01 02:50:30;;;;;;;13.70;4.40;;;;;;;15.57;100.00;98162.88;5116514;28;20437;-94
2023/07/01 02:52:57;;;;;;;16.05;5.50;;;;;;;15.41;100.00;98161.06;5096120;28;20063;-93
2023/07/01 02:55:28;;;;;;;13.35;5.00;;;;;;;15.20;100.00;98122.97;5114993;27;20451;-95
2023/07/01 02:57:54;;;;;;;16.52;5.30;;;;;;;15.32;100.00;98140.16;5099172;28;20035;-93
2023/07/01 03:00:21;;;;;;;14.00;5.07;;;;;;;15.45;100.00;98128.75;5114695;28;20035;-95
2023/07/01 03:02:47;;;;;;;11.30;4.40;;;;;;;15.40;100.00;98113.78;5090621;28;20044;-94
2023/07/01 03:05:13;;;;;;;12.65;4.65;;;;;;;15.33;100.00;98088.31;5087016;28;20093;-92
2023/07/01 03:07:41;;;;;;;12.73;4.68;;;;;;;15.49;100.00;98095.47;5116158;28;20047;-92
2023/07/01 03:10:07;;;;;;;13.38;4.68;;;;;;;15.28;100.00;98092.19;5100246;28;20044;-92
2023/07/01 03:12:39;;;;;;;12.77;4.43;;;;;;;15.23;100.00;98084.44;5100155;28;20040;-93
2023/07/01 03:15:08;;;;;;;18.48;5.85;;;;;;;15.20;100.00;98079.22;5116282;28;20044;-92
2023/07/01 03:17:34;;;;;;;12.73;4.53;;;;;;;15.36;100.00;98108.72;5107154;28;20040;-91
2023/07/01 03:20:00;;;;;;;13.90;4.60;;;;;;;15.52;100.00;98106.00;5096474;28;20036;-93
2023/07/01 03:22:26;;;;;;;13.10;5.13;;;;;;;15.34;100.00;98100.75;5098355;28;20039;-93
2023/07/01 03:24:53;;;;;;;13.15;4.55;;;;;;;15.38;100.00;98104.97;5098400;28;20454;-93
2023/07/01 03:27:19;;;;;;;18.05;5.45;;;;;;;15.43;100.00;98095.81;5096658;28;20098;-92
2023/07/01 03:29:45;;;;;;;15.40;4.60;;;;;;;15.27;100.00;98085.97;5103073;28;20427;-93
2023/07/01 03:32:11;;;;;;;14.45;5.10;;;;;;;15.04;100.00;98076.56;5086048;28;20071;-93
2023/07/01 03:34:39;;;;;;;13.93;4.82;;;;;;;15.05;100.00;98080.09;5080095;28;20076;-92
2023/07/01 03:37:06;;;;;;;15.70;5.20;;;;;;;15.18;100.00;98115.97;5078761;28;20464;-93
2023/07/01 03:39:32;;;;;;;15.50;5.30;;;;;;;15.17;100.00;98103.53;5095824;28;20040;-93
2023/07/01 03:41:59;;;;;;;13.82;4.93;;;;;;;15.18;100.00;98094.56;5105760;28;20051;-93
2023/07/01 03:44:31;;;;;;;15.40;4.93;;;;;;;15.30;100.00;98084.94;5097370;28;20552;-93
2023/07/01 03:46:57;;;;;;;14.30;4.95;;;;;;;15.19;100.00;98090.91;5100192;28;20517;-94
2023/07/01 03:49:23;;;;;;;15.30;5.47;;;;;;;15.19;100.00;98098.94;5109515;28;20040;-93
2023/07/01 03:51:50;;;;;;;15.93;5.40;;;;;;;15.12;100.00;98078.81;5080026;28;20509;-93
2023/07/01 03:54:16;;;;;;;13.10;4.93;;;;;;;15.31;100.00;98073.25;5096919;28;20068;-92
2023/07/01 03:56:42;;;;;;;15.90;5.55;;;;;;;15.55;100.00;98090.63;5109836;28;20044;-93
2023/07/01 03:59:10;;;;;;;13.98;5.25;;;;;;;15.46;100.00;98085.81;5099548;28;20061;-94
2023/07/01 04:01:36;;;;;;;12.63;4.70;;;;;;;15.35;100.00;98062.31;5099151;28;20097;-93
2023/07/01 04:04:15;;;;;;;15.73;5.22;;;;;;;15.35;100.00;98070.34;5115805;28;20523;-93
2023/07/01 04:06:41;;;;;;;14.60;5.28;;;;;;;15.28;100.00;98066.28;5085740;28;20071;-93
2023/07/01 04:09:12;;;;;;;15.30;4.97;;;;;;;15.28;100.00;98074.31;5108869;28;20078;-93
2023/07/01 04:11:38;;;;;;;14.13;5.20;;;;;;;15.42;100.00;98100.31;5094212;28;20046;-93
2023/07/01 04:14:04;;;;;;;14.18;5.47;;;;;;;15.28;100.00;98060.91;5112873;28;20140;-93
2023/07/01 04:16:32;;;;;;;17.85;6.57;;;;;;;15.45;100.00;98083.19;5110788;28;20036;-93
2023/07/01 04:18:59;;;;;;;15.40;5.73;;;;;;;15.44;100.00;98073.41;5096453;28;20050;-94
2023/07/01 04:21:25;;;;;;;19.23;5.97;;;;;;;15.46;100.00;98071.50;5080572;28;20075;-93
2023/07/01 04:23:51;;;;;;;14.90;5.05;;;;;;;15.37;100.00;98055.00;5095601;28;20443;-94
2023/07/01 04:26:17;;;;;;;13.13;5.70;;;;;;;15.39;100.00;98052.25;5091154;28;20077;-93
2023/07/01 04:28:49;;;;;;;17.08;6.03;;;;;;;15.38;100.00;98050.53;5095560;28;20064;-93
2023/07/01 04:31:16;;;;;;;16.00;5.57;;;;;;;15.59;100.00;98077.88;5113213;28;20396;-93
2023/07/01 04:33:46;;;;;;;16.85;5.28;;;;;;;15.63;100.00;98082.13;5099727;28;20530;-93
2023/07/01 04:36:12;;;;;;;13.60;5.13;;;;;;;15.21;100.00;98043.47;5115260;28;20139;-93
2023/07/01 04:38:38;;;;;;;15.68;6.13;;;;;;;15.31;100.00;98067.91;5093721;28;20472;-93
2023/07/01 04:41:05;;;;;;;15.65;5.88;;;;;;;15.18;100.00;98049.88;5095068;28;20044;-94
2023/07/01 04:43:31;;;;;;;17.30;5.80;;;;;;;15.28;100.00;98058.22;5095058;28;20389;-94
2023/07/01 04:45:57;;;;;;;15.02;6.22;;;;;;;15.26;100.00;98060.13;5078908;28;20035;-93
2023/07/01 04:48:23;;;;;;;17.30;5.57;;;;;;;15.18;100.00;98049.03;5090203;28;20040;-94
2023/07/01 04:50:50;;;;;;;14.05;5.25;;;;;;;15.28;100.00;98052.03;5115216;28;20431;-94
2023/07/01 04:53:16;;;;;;;15.68;5.97;;;;;;;15.45;100.00;98077.84;5109681;28;20036;-94
2023/07/01 04:55:42;;;;;;;14.82;5.13;;;;;;;15.50;100.00;98060.53;5105891;28;20096;-94
2023/07/01 04:58:08;;;;;;;15.20;5.47;;;;;;;15.56;100.00;98046.78;5115818;28;20040;-95
2023/07/01 05:00:34;;;;;;;16.98;6.45;;;;;;;15.64;100.00;98048.16;5100961;28;20135;-93
2023/07/01 05:03:00;;;;;;;13.52;5.35;;;;;;;15.62;100.00;98050.91;5102174;28;20493;-94
2023/07/01 05:05:26;;;;;;;14.77;5.25;;;;;;;15.54;100.00;98035.28;5102168;28;20069;-95
2023/07/01 05:07:53;;;;;;;18.95;5.65;;;;;;;15.78;100.00;98072.34;5119046;28;20036;-93
2023/07/01 05:10:19;;;;;;;14.90;5.40;;;;;;;15.80;100.00;98063.25;5096665;28;20028;-94
2023/07/01 05:12:45;;;;;;;14.05;5.25;;;;;;;15.92;100.00;98052.78;5119012;28;20092;-94
2023/07/01 05:15:11;;;;;;;16.63;6.05;;;;;;;15.87;100.00;98038.75;5118057;28;20051;-94
2023/07/01 05:17:37;;;;;;;13.75;5.60;;;;;;;16.10;100.00;98058.81;5120165;28;20072;-94
2023/07/01 05:20:05;;;;;;;16.17;6.13;;;;;;;16.13;100.00;98054.13;5087227;28;20048;-94
2023/07/01 05:22:31;;;;;;;19.00;5.95;;;;;;;16.23;100.00;98063.34;5107993;28;20059;-93
2023/07/01 05:24:58;;;;;;;16.92;5.95;;;;;;;16.14;100.00;98050.50;5086330;28;20482;-95
2023/07/01 05:27:24;;;;;;;15.32;5.28;;;;;;;16.34;100.00;98081.47;5096242;28;20409;-94
2023/07/01 05:29:50;;;;;;;14.57;5.35;;;;;;;16.34;100.00;98067.19;5091227;28;20054;-95
2023/07/01 05:32:16;;;;;;;16.48;5.72;;;;;;;16.42;100.00;98059.53;5121669;28;20047;-94
2023/07/01 05:34:41;;;;;;;16.17;6.13;;;;;;;16.51;100.00;98048.22;5114304;28;20097;-94
2023/07/01 05:37:07;;;;;;;14.27;5.57;;;;;;;16.68;100.00;98049.84;5104593;28;20048;-94
2023/07/01 05:39:33;;;;;;;12.80;5.00;;;;;;;16.80;100.00;98040.16;5118836;28;20100;-93
2023/07/01 05:42:01;;;;;;;11.88;4.88;;;;;;;16.85;100.00;98046.13;5118153;28;20051;-94
2023/07/01 05:44:27;;;;;;;13.10;4.55;;;;;;;16.96;100.00;98051.66;5092179;28;20044;-94
2023/07/01 05:46:53;;;;;;;13.77;5.65;;;;;;;16.78;100.00;98044.72;5081051;28;20074;-94
2023/07/01 05:49:19;;;;;;;13.75;4.88;;;;;;;16.87;100.00;98075.53;5099385;28;20040;-94
2023/07/01 05:51:45;;;;;;;14.48;4.82;;;;;;;16.81;100.00;98068.75;5114592;28;20092;-95
2023/07/01 05:54:11;;;;;;;14.68;5.43;;;;;;;16.73;100.00;98053.09;5114906;28;20044;-93
2023/07/01 05:56:37;;;;;;;13.93;5.05;;;;;;;16.88;100.00;98069.22;5115210;28;20158;-94
2023/07/01 05:59:04;;;;;;;15.00;5.28;;;;;;;16.72;100.00;98027.22;5117902;28;20043;-96
2023/07/01 06:01:30;;;;;;;13.60;5.22;;;;;;;16.82;100.00;98035.56;5117617;28;20043;-95
2023/07/01 06:03:56;;;;;;;16.17;5.78;;;;;;;16.97;100.00;98052.50;5117912;28;20093;-93
2023/07/01 06:06:22;;;;;;;15.95;5.65;;;;;;;16.99;100.00;98051.44;5116934;28;20044;-94
2023/07/01 06:08:48;;;;;;;14.50;5.28;;;;;;;17.06;100.00;98057.28;5108360;28;20138;-94
2023/07/01 06:11:14;;;;;;;13.18;4.85;;;;;;;17.11;100.00;98070.41;5103918;28;20036;-93
2023/07/01 06:13:44;;;;;;;13.95;4.97;;;;;;;17.16;100.00;98079.06;5083532;28;20096;-94
2023/07/01 06:16:12;;;;;;;14.25;4.95;;;;;;;17.15;100.00;98067.41;5117262;28;20142;-94
2023/07/01 06:18:37;;;;;;;14.95;5.13;;;;;;;17.24;100.00;98074.03;5089166;28;20044;-93
2023/07/01 06:21:06;;;;;;;16.08;5.57;;;;;;;17.32;100.00;98071.69;5115178;28;20043;-95
2023/07/01 06:23:32;;;;;;;16.55;6.20;;;;;;;17.43;100.00;98076.38;5111664;28;20040;-94
2023/07/01 06:25:58;;;;;;;16.15;5.80;;;;;;;17.51;100.00;98073.19;5099422;28;20100;-93
2023/07/01 06:28:24;;;;;;;15.27;5.95;;;;;;;17.32;100.00;98065.47;5111363;27;20493;-94
2023/07/01 06:30:50;;;;;;;13.73;5.90;;;;;;;17.14;100.00;98076.44;5105064;28;20031;-93
2023/07/01 06:33:17;;;;;;;14.85;5.63;;;;;;;17.09;100.00;98083.06;5109659;28;20044;-91
2023/07/01 06:35:43;;;;;;;15.35;5.47;;;;;;;17.19;100.00;98087.75;5114165;28;20803;-94
2023/07/01 06:38:09;;;;;;;19.80;5.90;;;;;;;17.01;100.00;98086.28;5094202;28;20127;-92
2023/07/01 06:40:35;;;;;;;15.63;5.57;;;;;;;16.94;100.00;98068.84;5108716;28;20053;-94
2023/07/01 06:43:02;;;;;;;14.57;5.03;;;;;;;16.97;100.00;98079.38;5112655;28;20144;-94
2023/07/01 06:45:28;;;;;;;15.50;5.78;;;;;;;17.03;100.00;98087.88;5112500;28;20048;-93
2023/07/01 06:47:54;;;;;;;18.77;6.07;;;;;;;17.10;100.00;98079.44;5114271;28;20044;-93
2023/07/01 06:50:21;;;;;;;14.88;6.18;;;;;;;17.13;100.00;98064.00;5101678;28;20036;-93
2023/07/01 06:52:47;;;;;;;12.15;4.90;;;;;;;17.24;100.00;98064.16;5109925;28;20041;-93
2023/07/01 06:55:13;;;;;;;12.80;5.50;;;;;;;17.19;100.00;98082.38;5087844;28;20126;-94
2023/07/01 06:57:39;;;;;;;10.63;5.10;;;;;;;17.30;100.00;98086.19;5114006;28;20108;-92
2023/07/01 07:00:09;;;;;;;15.07;5.43;;;;;;;17.31;100.00;98078.03;5115464;28;20086;-93
2023/07/01 07:02:35;;;;;;;13.13;4.88;;;;;;;17.36;100.00;98073.22;5088496;28;20442;-93
2023/07/01 07:05:03;;;;;;;15.65;5.70;;;;;;;17.43;100.00;98074.53;5113217;27;20036;-94
2023/07/01 07:07:30;;;;;;;12.93;4.83;;;;;;;17.57;100.00;98083.53;5112734;28;20039;-94
2023/07/01 07:09:56;;;;;;;15.30;5.70;;;;;;;17.70;100.00;98081.75;5060838;28;20135;-95
2023/07/01 07:12:22;;;;;;;15.27;5.50;;;;;;;17.76;100.00;98067.00;5079154;28;20095;-94
2023/07/01 07:14:48;;;;;;;11.55;4.60;;;;;;;17.74;100.00;98059.06;5083734;28;20045;-94
2023/07/01 07:17:14;;;;;;;10.45;4.68;;;;;;;17.89;100.00;98062.56;5062249;28;20041;-94
2023/07/01 07:19:39;;;;;;;12.30;5.35;;;;;;;18.12;100.00;98082.50;5079961;28;20037;-94
2023/07/01 07:22:06;;;;;;;12.35;4.80;;;;;;;18.26;100.00;98090.50;5090107;28;20036;-94
2023/07/01 07:24:33;;;;;;;13.23;5.00;;;;;;;18.36;100.00;98081.78;5080073;28;20047;-94
2023/07/01 07:27:01;;;;;;;12.80;4.75;;;;;;;18.48;100.00;98065.63;5086639;28;20044;-94
2023/07/01 07:29:28;;;;;;;10.15;4.18;;;;;;;18.81;100.00;98075.00;5070235;28;20055;-94
2023/07/01 07:31:54;;;;;;;10.90;4.32;;;;;;;18.23;100.00;98069.16;5072658;28;20036;-92
2023/07/01 07:34:21;;;;;;;11.52;4.78;;;;;;;18.29;100.00;98083.19;5090277;28;20082;-94
2023/07/01 07:36:46;;;;;;;13.55;5.43;;;;;;;18.43;100.00;98088.44;5069154;28;20440;-93
2023/07/01 07:39:13;;;;;;;13.68;5.15;;;;;;;18.52;100.00;98085.13;5085723;28;20036;-94
2023/07/01 07:41:41;;;;;;;13.15;5.10;;;;;;;18.54;100.00;98068.84;5086498;28;20048;-93
2023/07/01 07:44:07;;;;;;;15.05;6.03;;;;;;;18.37;100.00;98084.38;5067724;28;20514;-93
2023/07/01 07:46:33;;;;;;;14.55;5.57;;;;;;;18.37;100.00;98099.66;5082267;28;20051;-93
2023/07/01 07:48:59;;;;;;;12.95;4.82;;;;;;;18.23;100.00;98082.63;5075711;28;20052;-93
2023/07/01 07:51:25;;;;;;;12.70;4.70;;;;;;;17.94;100.00;98089.16;5068581;28;20078;-92
2023/07/01 07:53:51;;;;;;;14.73;5.03;;;;;;;17.98;100.00;98087.97;5080496;28;20061;-92
2023/07/01 07:56:17;;;;;;;14.00;5.28;;;;;;;17.94;100.00;98099.91;5065752;28;20037;-92
2023/07/01 07:58:45;;;;;;;11.30;5.75;;;;;;;18.25;100.00;98095.97;5079435;28;20053;-92
2023/07/01 08:01:11;;;;;;;12.65;4.90;;;;;;;17.93;100.00;98079.34;5085699;28;20034;-93
2023/07/01 08:03:38;;;;;;;11.20;4.63;;;;;;;18.24;100.00;98081.66;5064806;28;20131;-93
2023/07/01 08:06:04;;;;;;;15.40;5.25;;;;;;;18.41;100.00;98076.91;5082679;28;20502;-94
2023/07/01 08:08:30;;;;;;;13.60;5.38;;;;;;;18.64;100.00;98075.31;5095655;28;20055;-94
2023/07/01 08:10:56;;;;;;;14.13;5.07;;;;;;;18.68;100.00;98066.03;5073570;28;20044;-93
2023/07/01 08:13:22;;;;;;;15.15;5.70;;;;;;;18.96;100.00;98073.03;5074504;28;20033;-93
2023/07/01 08:15:50;;;;;;;12.63;5.10;;;;;;;18.77;100.00;98064.50;5072663;28;20047;-92
2023/07/01 08:18:23;;;;;;;13.10;4.50;;;;;;;18.86;100.00;98082.72;5074018;28;20043;-93
2023/07/01 08:20:50;;;;;;;11.73;4.65;;;;;;;18.59;100.00;98054.09;5090065;28;20490;-94
2023/07/01 08:23:16;;;;;;;13.75;4.80;;;;;;;18.95;100.00;98073.97;5071311;28;20153;-91
2023/07/01 08:25:42;;;;;;;11.18;4.32;;;;;;;19.18;100.00;98063.38;5080818;28;20053;-94
2023/07/01 08:28:09;;;;;;;12.52;4.00;;;;;;;19.02;100.00;98051.03;5073784;28;20105;-91
2023/07/01 08:30:35;;;;;;;12.43;4.43;;;;;;;19.46;100.00;98059.50;5094073;28;20090;-94
2023/07/01 08:33:02;;;;;;;10.95;4.35;;;;;;;19.13;100.00;98042.16;5074209;28;20036;-93
2023/07/01 08:35:28;;;;;;;14.10;5.47;;;;;;;18.60;100.00;98050.41;5094520;28;20060;-93
2023/07/01 08:37:54;;;;;;;10.60;4.22;;;;;;;18.66;100.00;98068.84;5079345;28;20036;-93
2023/07/01 08:40:20;;;;;;;13.43;4.80;;;;;;;18.89;100.00;98066.38;5077570;28;20023;-93
2023/07/01 08:42:48;;;;;;;11.55;4.47;;;;;;;19.00;100.00;98077.22;5077327;28;20559;-94
2023/07/01 08:45:14;;;;;;;13.10;5.32;;;;;;;18.97;100.00;98076.56;5077602;28;20072;-91
2023/07/01 08:47:41;;;;;;;9.63;4.28;;;;;;;18.86;100.00;98070.13;5082459;28;20440;-91
2023/07/01 08:50:09;;;;;;;14.55;5.32;;;;;;;19.23;100.00;98069.28;5076724;28;20128;-93
2023/07/01 08:52:41;;;;;;;13.30;5.78;;;;;;;19.35;100.00;98072.91;5094129;28;20033;-93
2023/07/01 08:55:10;;;;;;;11.27;4.40;;;;;;;19.44;100.00;98072.22;5077803;28;20036;-93
2023/07/01 08:57:37;;;;;;;;;;;;;;;18.83;100.00;98074.88;5074216;28;20037;-94
2023/07/01 09:00:05;;;;;;;12.40;4.50;;;;;;;18.77;100.00;98057.28;5075908;28;19936;-91
2023/07/01 09:02:33;;;;;;;12.60;5.35;;;;;;;19.18;100.00;98045.38;5077306;28;20071;-92
2023/07/01 09:04:59;;;;;;;10.30;4.55;;;;;;;19.60;100.00;98059.31;5076558;28;20135;-94
2023/07/01 09:07:29;;;;;;;11.90;5.47;;;;;;;19.57;100.00;98039.81;5077600;28;20059;-93
2023/07/01 09:09:55;;;;;;;13.70;5.53;;;;;;;19.75;100.00;98040.28;5095132;28;20044;-92
2023/07/01 09:12:25;;;;;;;12.90;5.30;;;;;;;19.56;100.00;98035.38;5078424;28;20043;-93
2023/07/01 09:15:01;;;;;;;13.45;4.82;;;;;;;19.86;100.00;98046.59;5077414;28;20041;-94
2023/07/01 09:17:29;;;;;;;13.32;5.53;;;;;;;20.30;100.00;98036.88;5077079;28;20047;-94
2023/07/01 09:19:58;;;;;;;14.45;4.95;;;;;;;20.55;100.00;98042.16;5080422;28;20062;-94
2023/07/01 09:22:25;;;;;;;15.50;5.30;;;;;;;20.58;100.00;98033.84;5078812;28;20045;-94
2023/07/01 09:24:52;;;;;;;13.80;4.47;;;;;;;20.27;100.00;98031.69;5095535;28;20036;-94
2023/07/01 09:27:17;;;;;;;14.73;5.00;;;;;;;20.43;100.00;98022.41;5078687;28;20062;-95
2023/07/01 09:29:44;;;;;;;11.32;5.28;;;;;;;20.41;100.00;98043.28;5078440;28;20012;-94
2023/07/01 09:32:10;;;;;;;13.43;4.85;;;;;;;20.73;100.00;98024.50;5096082;28;20106;-94
2023/07/01 09:34:52;;;;;;;14.25;5.32;;;;;;;21.67;100.00;98038.47;5081381;28;20064;-96
2023/07/01 09:37:18;;;;;;;15.05;5.40;;;;;;;21.76;100.00;98023.31;5098463;28;20139;-95
2023/07/01 09:39:46;;;;;;;13.88;4.93;;;;;;;22.26;100.00;98034.38;5097664;28;20505;-95
2023/07/01 09:42:12;;;;;;;15.88;5.38;;;;;;;22.32;100.00;98029.28;5079015;28;20068;-94
2023/07/01 09:44:38;;;;;;;12.30;5.57;;;;;;;22.62;100.00;98026.72;5087879;28;20040;-96
2023/07/01 09:47:05;;;;;;;13.88;5.63;;;;;;;23.03;100.00;98033.94;5097202;28;20552;-95
2023/07/01 09:49:36;;;;;;;18.85;6.38;;;;;;;23.31;100.00;98021.44;5080194;28;20123;-95
2023/07/01 09:52:03;;;;;;;19.35;6.35;;;;;;;23.56;100.00;98030.88;5077951;28;20135;-94
2023/07/01 09:54:31;;;;;;;14.77;6.53;;;;;;;23.83;100.00;98026.63;5077950;28;20463;-95
2023/07/01 09:56:59;;;;;;;15.52;6.32;;;;;;;23.93;100.00;98008.47;5094683;28;20037;-94
2023/07/01 09:59:26;;;;;;;13.48;5.93;;;;;;;24.19;100.00;98029.59;5093916;28;20044;-95
2023/07/01 10:01:54;;;;;;;15.48;6.10;;;;;;;24.35;100.00;98008.13;5094688;28;20037;-94
2023/07/01 10:04:25;;;;;;;16.52;6.38;;;;;;;24.39;99.47;98017.66;5092892;28;20140;-94
2023/07/01 10:06:51;;;;;;;19.02;6.22;;;;;;;24.08;100.00;98019.75;5093755;28;20055;-93
2023/07/01 10:09:16;;;;;;;17.75;6.32;;;;;;;24.23;100.00;98011.16;5104784;28;20123;-93
2023/07/01 10:11:43;;;;;;;17.42;6.75;;;;;;;23.74;100.00;98022.88;5085112;28;20049;-94
2023/07/01 10:14:11;;;;;;;16.80;6.15;;;;;;;24.03;100.00;98011.19;5087999;28;20040;-93
2023/07/01 10:16:46;;;;;;;15.48;7.03;;;;;;;24.43;100.00;98004.66;5087596;28;20033;-93
2023/07/01 10:19:26;;;;;;;19.30;6.50;;;;;;;24.61;96.59;97999.31;5106610;28;20062;-93
2023/07/01 10:21:52;;;;;;;14.00;6.00;;;;;;;24.28;100.00;98004.25;5106412;28;20024;-93
2023/07/01 10:24:35;;;;;;;16.58;6.45;;;;;;;23.73;100.00;97983.16;5100911;28;20063;-94
2023/07/01 10:27:00;;;;;;;14.55;6.40;;;;;;;23.08;100.00;97988.25;5087906;28;20044;-93
2023/07/01 10:29:57;;;;;;;16.73;6.03;;;;;;;22.87;100.00;98001.88;5087246;28;20039;-93
2023/07/01 10:32:30;;;;;;;16.50;7.35;;;;;;;22.33;100.00;98003.91;5081052;28;20047;-93
2023/07/01 10:35:15;;;;;;;16.30;6.45;;;;;;;22.62;100.00;97996.91;5089314;28;20040;-93
2023/07/01 10:37:42;;;;;;;14.93;5.60;;;;;;;22.68;100.00;98005.34;5092569;28;20090;-92
2023/07/01 10:40:41;;;;;;;19.95;6.63;;;;;;;23.55;100.00;98004.75;5103971;28;20044;-92
2023/07/01 10:43:29;;;;;;;15.43;6.13;;;;;;;24.10;99.09;97992.44;5017972;28;20037;-92
2023/07/01 10:46:11;;;;;;;12.73;6.50;;;;;;;23.61;100.00;97992.44;5032256;28;20041;-93
2023/07/01 10:48:38;;;;;;;13.73;6.10;;;;;;;23.76;100.00;97979.34;5014542;28;20026;-93
2023/07/01 10:51:05;;;;;;;16.48;6.78;;;;;;;23.99;100.00;97971.75;5004470;28;20042;-94
2023/07/01 10:53:31;;;;;;;13.73;6.07;;;;;;;24.70;100.00;97964.94;5003370;28;20117;-92
2023/07/01 10:56:11;;;;;;;17.60;6.40;;;;;;;25.28;96.78;97986.41;5010502;28;20038;-93
2023/07/01 10:58:37;;;;;;;15.73;6.78;;;;;;;25.43;89.03;97975.84;5016692;28;20056;-93
2023/07/01 11:01:03;;;;;;;13.30;6.07;;;;;;;25.44;93.15;97983.00;5009116;28;20125;-92
2023/07/01 11:06:35;;;;;;;17.42;6.88;;;;;;;23.98;94.76;97965.47;5089081;22;20029;-92
2023/07/01 11:09:03;;;;;;;16.25;6.93;;;;;;;24.21;94.45;97950.69;5024394;28;20079;-94
2023/07/01 11:11:30;;;;;;;17.55;6.70;;;;;;;24.62;95.92;97983.88;5035462;28;20542;-93
2023/07/01 11:14:03;;;;;;;18.38;6.75;;;;;;;24.82;91.97;97962.91;5028562;28;20041;-95
2023/07/01 11:16:29;;;;;;;17.60;7.10;;;;;;;24.07;94.50;97966.44;5024846;28;20042;-95
2023/07/01 11:18:57;;;;;;;14.32;6.00;;;;;;;23.95;94.05;97954.88;5030583;28;20042;-94
2023/07/01 11:21:25;;;;;;;14.07;6.80;;;;;;;24.00;99.29;97981.59;5025190;28;20438;-91
2023/07/01 11:23:52;;;;;;;16.77;6.28;;;;;;;23.93;99.71;97984.03;5027390;28;20310;-94
2023/07/01 11:26:20;;;;;;;15.18;6.68;;;;;;;24.04;100.00;97968.59;5032978;28;20123;-93
2023/07/01 11:28:46;;;;;;;12.38;6.45;;;;;;;24.64;100.00;97969.13;5029312;28;20055;-93